首页
METAR-TAF:

METAR-TAF

机场 :

Stennis International Airport

贝圣路易斯, 密西西比州, 美国

纬度: 30-22-04N, 经度: 089-27-17W, 海拔: 7米

当前天气观测

该预报发布于53分钟前的21:50 UTC
风速8节,风向东北
温度 12°C
湿度 44%
气压 1029 hPa
能見度: 11.3公里
阴天层高于8000英尺

METAR: KHSA 112150Z 04008KT 7SM OVC080 12/00 A3038

时间: 16:43 (22:43 UTC)


TAF: 丢失

超过4000个机场的气象观测和天气预报(METAR&TAF报告)。

可查询的气象台以黄色和红色小点在地图上表示。

将鼠标移到小点上方,可查看气象台名称。

然后点击查看天气观测和预报。

如需切换地图:点击带黑十字的绿色按钮放大地图;点击带横线的绿色按钮缩小地图;或者点击绿色箭头查看邻近地区的地图。


METAR-TAF: